CMP497 MPTO-SCEL
Flight info
| Callsign | CMP497 |
|---|---|
| Flight time | N/A |
| Altitude | 33000 |
| Route | DANDA1A DANDA DCT TORIL UL780 UGUPI/N0466F350 UL780 SORTA/N0454F370 UL780 SULNA UT315 TOY UL302 SIMOK SIMOK7B |
| Aircraft | B738/M-SDE2E3FGHIRWXY/LB1 |
Departure
| Time | 2026-04-27 16:25 |
|---|---|
| Airport | Tocumen International Airport (MPTO) |
Arrival
| Time | N/A |
|---|---|
| Airport | Comodoro Arturo Merino Benítez International Airport (SCEL) |
| Time | Latitude | Longitude | Altitude | Speed | Heading |
|---|---|---|---|---|---|
| 2026-04-27 15:43 | 9.06482 | -79.38759 | 29 ft | 0 kts | 71° |
| 2026-04-27 16:13 | 9.06480 | -79.38791 | 29 ft | 4 kts | 129° |
| 2026-04-27 16:13 | 9.06499 | -79.38806 | 29 ft | 2 kts | 151° |
| 2026-04-27 16:14 | 9.06501 | -79.38807 | 29 ft | 0 kts | 151° |
| 2026-04-27 16:17 | 9.06494 | -79.38803 | 29 ft | 3 kts | 151° |
| 2026-04-27 16:17 | 9.06418 | -79.38770 | 29 ft | 7 kts | 141° |
| 2026-04-27 16:18 | 9.06364 | -79.38689 | 29 ft | 7 kts | 120° |
| 2026-04-27 16:18 | 9.06295 | -79.38616 | 29 ft | 10 kts | 162° |
| 2026-04-27 16:19 | 9.06218 | -79.38615 | 29 ft | 13 kts | 189° |
| 2026-04-27 16:19 | 9.06148 | -79.38650 | 29 ft | 15 kts | 209° |
| 2026-04-27 16:20 | 9.05859 | -79.38814 | 29 ft | 18 kts | 210° |
| 2026-04-27 16:20 | 9.05754 | -79.38875 | 29 ft | 17 kts | 210° |
| 2026-04-27 16:20 | 9.05554 | -79.38992 | 29 ft | 16 kts | 210° |
| 2026-04-27 16:21 | 9.05459 | -79.39047 | 29 ft | 15 kts | 209° |
| 2026-04-27 16:21 | 9.05185 | -79.39204 | 29 ft | 13 kts | 209° |
| 2026-04-27 16:22 | 9.05118 | -79.39242 | 29 ft | 9 kts | 209° |
| 2026-04-27 16:22 | 9.05036 | -79.39289 | 29 ft | 7 kts | 209° |
| 2026-04-27 16:22 | 9.04984 | -79.39319 | 29 ft | 11 kts | 209° |
| 2026-04-27 16:23 | 9.04908 | -79.39362 | 29 ft | 10 kts | 210° |
| 2026-04-27 16:23 | 9.04806 | -79.39321 | 30 ft | 9 kts | 122° |
| 2026-04-27 16:23 | 9.04777 | -79.39265 | 30 ft | 9 kts | 100° |
| 2026-04-27 16:24 | 9.04794 | -79.39243 | 30 ft | 2 kts | 30° |
| 2026-04-27 16:24 | 9.05056 | -79.39093 | 31 ft | 78 kts | 29° |
| 2026-04-27 16:25 | 9.06750 | -79.38128 | 93 ft | 187 kts | 30° |
| 2026-04-27 16:25 | 9.08899 | -79.36729 | 1493 ft | 193 kts | 55° |
| 2026-04-27 16:26 | 9.08867 | -79.33828 | 2222 ft | 228 kts | 104° |
| 2026-04-27 16:26 | 9.08116 | -79.30521 | 3147 ft | 254 kts | 100° |
| 2026-04-27 16:27 | 9.07486 | -79.26946 | 4604 ft | 261 kts | 99° |
| 2026-04-27 16:27 | 9.06404 | -79.21303 | 6432 ft | 284 kts | 111° |
| 2026-04-27 16:28 | 9.03365 | -79.18923 | 7874 ft | 291 kts | 170° |
| 2026-04-27 16:28 | 8.99385 | -79.19838 | 9116 ft | 300 kts | 204° |
| 2026-04-27 16:29 | 8.93587 | -79.22649 | 10521 ft | 329 kts | 205° |
| 2026-04-27 16:30 | 8.89235 | -79.24688 | 11012 ft | 360 kts | 204° |
| 2026-04-27 16:30 | 8.85316 | -79.26523 | 11450 ft | 379 kts | 204° |
| 2026-04-27 16:31 | 8.78177 | -79.29853 | 13240 ft | 383 kts | 204° |
| 2026-04-27 16:31 | 8.73370 | -79.32087 | 14379 ft | 383 kts | 204° |
| 2026-04-27 16:32 | 8.68491 | -79.34358 | 15268 ft | 389 kts | 204° |
| 2026-04-27 16:32 | 8.66022 | -79.35509 | 15717 ft | 392 kts | 204° |
| 2026-04-27 16:33 | 8.61029 | -79.37834 | 16607 ft | 397 kts | 204° |
| 2026-04-27 16:33 | 8.58413 | -79.38756 | 17014 ft | 400 kts | 192° |
| 2026-04-27 16:33 | 8.55663 | -79.39261 | 17454 ft | 402 kts | 189° |
| 2026-04-27 16:33 | 8.52900 | -79.39689 | 17936 ft | 402 kts | 188° |
| 2026-04-27 16:34 | 8.50118 | -79.40106 | 18322 ft | 405 kts | 188° |
| 2026-04-27 16:34 | 8.47352 | -79.40530 | 18628 ft | 409 kts | 189° |
| 2026-04-27 16:34 | 8.44533 | -79.40976 | 18985 ft | 411 kts | 189° |
| 2026-04-27 16:34 | 8.41708 | -79.41437 | 19360 ft | 412 kts | 189° |
| 2026-04-27 16:35 | 8.38869 | -79.41909 | 19702 ft | 415 kts | 189° |
| 2026-04-27 16:35 | 8.36014 | -79.42389 | 20029 ft | 417 kts | 190° |
| 2026-04-27 16:35 | 8.30254 | -79.43367 | 20674 ft | 422 kts | 190° |
| 2026-04-27 16:36 | 8.27346 | -79.43861 | 20981 ft | 425 kts | 190° |
| 2026-04-27 16:36 | 8.24427 | -79.44357 | 21341 ft | 426 kts | 190° |
| 2026-04-27 16:36 | 8.21490 | -79.44856 | 21668 ft | 428 kts | 190° |
| 2026-04-27 16:36 | 8.18544 | -79.45356 | 21958 ft | 430 kts | 190° |
| 2026-04-27 16:37 | 8.15585 | -79.45858 | 22264 ft | 432 kts | 190° |
| 2026-04-27 16:37 | 8.12645 | -79.46357 | 22577 ft | 434 kts | 190° |
| 2026-04-27 16:37 | 8.09662 | -79.46863 | 22861 ft | 436 kts | 190° |
| 2026-04-27 16:37 | 8.06658 | -79.47372 | 23156 ft | 438 kts | 190° |
| 2026-04-27 16:38 | 8.03650 | -79.47882 | 23448 ft | 440 kts | 190° |
| 2026-04-27 16:38 | 8.00622 | -79.48396 | 23688 ft | 442 kts | 190° |
| 2026-04-27 16:38 | 7.97582 | -79.48911 | 23953 ft | 443 kts | 190° |
| 2026-04-27 16:38 | 7.94544 | -79.49425 | 24234 ft | 443 kts | 189° |
| 2026-04-27 16:39 | 7.91499 | -79.49941 | 24499 ft | 443 kts | 189° |
| 2026-04-27 16:39 | 7.88453 | -79.50457 | 24750 ft | 444 kts | 189° |
| 2026-04-27 16:39 | 7.85405 | -79.50974 | 25016 ft | 445 kts | 189° |
| 2026-04-27 16:39 | 7.82345 | -79.51492 | 25259 ft | 446 kts | 189° |
| 2026-04-27 16:40 | 7.79280 | -79.52011 | 25489 ft | 447 kts | 189° |
| 2026-04-27 16:40 | 7.76208 | -79.52531 | 25728 ft | 448 kts | 189° |
| 2026-04-27 16:40 | 7.73126 | -79.53053 | 25978 ft | 449 kts | 189° |
| 2026-04-27 16:40 | 7.70079 | -79.53569 | 26214 ft | 449 kts | 189° |
| 2026-04-27 16:41 | 7.66991 | -79.54091 | 26445 ft | 450 kts | 189° |
| 2026-04-27 16:41 | 7.63898 | -79.54615 | 26678 ft | 451 kts | 189° |
| 2026-04-27 16:41 | 7.60795 | -79.55140 | 26902 ft | 452 kts | 189° |
| 2026-04-27 16:41 | 7.57686 | -79.55666 | 27127 ft | 453 kts | 189° |
| 2026-04-27 16:42 | 7.54580 | -79.56191 | 27341 ft | 454 kts | 189° |
| 2026-04-27 16:42 | 7.51464 | -79.56718 | 27559 ft | 454 kts | 189° |
| 2026-04-27 16:42 | 7.48339 | -79.57247 | 27769 ft | 455 kts | 189° |
| 2026-04-27 16:42 | 7.45211 | -79.57776 | 27969 ft | 456 kts | 189° |
| 2026-04-27 16:43 | 7.42075 | -79.58306 | 28136 ft | 458 kts | 189° |
| 2026-04-27 16:43 | 7.38929 | -79.58838 | 28326 ft | 459 kts | 189° |
| 2026-04-27 16:43 | 7.35779 | -79.59370 | 28540 ft | 459 kts | 189° |
| 2026-04-27 16:43 | 7.32640 | -79.59901 | 28829 ft | 457 kts | 189° |
| 2026-04-27 16:44 | 7.29502 | -79.60431 | 29165 ft | 455 kts | 188° |
| 2026-04-27 16:44 | 7.26370 | -79.60825 | 29480 ft | 453 kts | 183° |
| 2026-04-27 16:44 | 7.23222 | -79.60959 | 29773 ft | 451 kts | 181° |
| 2026-04-27 16:44 | 7.20086 | -79.61025 | 30042 ft | 450 kts | 180° |
| 2026-04-27 16:45 | 7.16994 | -79.61071 | 30279 ft | 449 kts | 180° |
| 2026-04-27 16:45 | 7.13865 | -79.61122 | 30491 ft | 449 kts | 181° |
| 2026-04-27 16:45 | 7.10740 | -79.61183 | 30674 ft | 450 kts | 181° |
| 2026-04-27 16:45 | 7.07606 | -79.61256 | 30889 ft | 450 kts | 181° |
| 2026-04-27 16:46 | 7.04481 | -79.61336 | 31120 ft | 449 kts | 181° |
| 2026-04-27 16:46 | 7.01350 | -79.61422 | 31341 ft | 449 kts | 181° |
| 2026-04-27 16:46 | 6.98224 | -79.61511 | 31545 ft | 449 kts | 181° |
| 2026-04-27 16:46 | 6.95103 | -79.61600 | 31759 ft | 449 kts | 181° |
| 2026-04-27 16:47 | 6.91982 | -79.61690 | 31978 ft | 449 kts | 182° |
| 2026-04-27 16:47 | 6.88858 | -79.61779 | 32191 ft | 448 kts | 182° |
| 2026-04-27 16:47 | 6.85737 | -79.61868 | 32400 ft | 449 kts | 182° |
| 2026-04-27 16:47 | 6.82615 | -79.61957 | 32612 ft | 448 kts | 182° |
| 2026-04-27 16:48 | 6.79537 | -79.62044 | 32842 ft | 448 kts | 182° |
| 2026-04-27 16:48 | 6.76416 | -79.62132 | 32948 ft | 449 kts | 182° |
| 2026-04-27 16:48 | 6.73277 | -79.62221 | 32944 ft | 451 kts | 182° |
| 2026-04-27 16:49 | 6.63882 | -79.62487 | 32948 ft | 449 kts | 182° |
| 2026-04-27 16:49 | 6.57648 | -79.62664 | 32947 ft | 447 kts | 182° |
| 2026-04-27 16:50 | 6.51426 | -79.62840 | 32948 ft | 447 kts | 182° |
| 2026-04-27 16:50 | 6.45260 | -79.63014 | 32948 ft | 446 kts | 182° |
| 2026-04-27 16:51 | 6.39050 | -79.63190 | 32948 ft | 446 kts | 182° |
| 2026-04-27 16:51 | 6.32844 | -79.63366 | 32944 ft | 446 kts | 182° |
| 2026-04-27 16:52 | 6.26619 | -79.63541 | 32952 ft | 447 kts | 182° |
| 2026-04-27 16:52 | 6.20384 | -79.63718 | 32950 ft | 448 kts | 182° |
| 2026-04-27 16:53 | 6.14133 | -79.63894 | 32949 ft | 450 kts | 182° |
| 2026-04-27 16:53 | 6.07872 | -79.64071 | 32949 ft | 451 kts | 182° |
| 2026-04-27 16:54 | 6.01620 | -79.64248 | 32946 ft | 452 kts | 182° |
| 2026-04-27 16:54 | 5.95332 | -79.64425 | 32938 ft | 453 kts | 182° |
| 2026-04-27 16:55 | 5.89015 | -79.64604 | 32947 ft | 453 kts | 182° |
| 2026-04-27 16:55 | 5.82692 | -79.64782 | 32948 ft | 454 kts | 182° |
| 2026-04-27 16:56 | 5.76417 | -79.64959 | 32945 ft | 454 kts | 182° |
| 2026-04-27 16:56 | 5.70102 | -79.65137 | 32945 ft | 454 kts | 182° |
| 2026-04-27 16:57 | 5.63779 | -79.65316 | 32945 ft | 454 kts | 182° |
| 2026-04-27 16:57 | 5.57466 | -79.65494 | 32942 ft | 454 kts | 182° |
| 2026-04-27 16:58 | 5.51193 | -79.65671 | 32946 ft | 453 kts | 182° |
| 2026-04-27 16:58 | 5.44881 | -79.65849 | 32945 ft | 453 kts | 182° |
| 2026-04-27 16:59 | 5.38567 | -79.66027 | 32945 ft | 453 kts | 182° |
| 2026-04-27 16:59 | 5.32254 | -79.66204 | 32945 ft | 453 kts | 182° |
| 2026-04-27 17:00 | 5.22851 | -79.66469 | 32944 ft | 453 kts | 182° |
| 2026-04-27 17:01 | 5.16554 | -79.66647 | 32949 ft | 453 kts | 182° |
| 2026-04-27 17:01 | 5.10251 | -79.66899 | 32945 ft | 453 kts | 182° |
| 2026-04-27 17:02 | 5.03954 | -79.67198 | 32943 ft | 453 kts | 183° |
| 2026-04-27 17:02 | 4.97642 | -79.67492 | 32943 ft | 454 kts | 182° |
| 2026-04-27 17:03 | 4.91327 | -79.67779 | 32943 ft | 454 kts | 182° |
| 2026-04-27 17:03 | 4.85049 | -79.68059 | 32941 ft | 454 kts | 182° |
| 2026-04-27 17:04 | 4.78728 | -79.68341 | 32944 ft | 455 kts | 182° |
| 2026-04-27 17:04 | 4.72395 | -79.68624 | 32942 ft | 455 kts | 182° |
| 2026-04-27 17:05 | 4.66053 | -79.68907 | 32946 ft | 455 kts | 182° |
| 2026-04-27 17:05 | 4.59763 | -79.69187 | 32942 ft | 456 kts | 182° |
| 2026-04-27 17:06 | 4.53414 | -79.69471 | 32941 ft | 456 kts | 182° |
| 2026-04-27 17:06 | 4.47077 | -79.69753 | 32938 ft | 456 kts | 182° |
| 2026-04-27 17:07 | 4.40733 | -79.70036 | 32947 ft | 456 kts | 182° |
| 2026-04-27 17:07 | 4.34422 | -79.70318 | 32943 ft | 456 kts | 182° |
| 2026-04-27 17:08 | 4.28071 | -79.70601 | 32939 ft | 457 kts | 182° |
| 2026-04-27 17:08 | 4.21713 | -79.70885 | 32940 ft | 457 kts | 182° |
| 2026-04-27 17:09 | 4.15351 | -79.71168 | 32941 ft | 457 kts | 182° |
| 2026-04-27 17:09 | 4.08971 | -79.71452 | 32934 ft | 458 kts | 183° |
| 2026-04-27 17:10 | 4.02648 | -79.71734 | 32948 ft | 458 kts | 183° |
| 2026-04-27 17:10 | 3.96265 | -79.72019 | 32944 ft | 459 kts | 183° |
| 2026-04-27 17:11 | 3.89883 | -79.72303 | 32943 ft | 459 kts | 183° |
| 2026-04-27 17:11 | 3.80290 | -79.72730 | 32943 ft | 460 kts | 183° |
| 2026-04-27 17:12 | 3.70687 | -79.73158 | 32942 ft | 461 kts | 183° |
| 2026-04-27 17:13 | 3.64279 | -79.73443 | 32945 ft | 461 kts | 183° |
| 2026-04-27 17:13 | 3.57909 | -79.73727 | 32941 ft | 461 kts | 183° |
| 2026-04-27 17:14 | 3.51506 | -79.74012 | 32941 ft | 460 kts | 183° |
| 2026-04-27 17:14 | 3.45097 | -79.74297 | 32942 ft | 460 kts | 183° |
| 2026-04-27 17:15 | 3.38700 | -79.74581 | 32941 ft | 459 kts | 183° |
| 2026-04-27 17:15 | 3.32309 | -79.74866 | 32943 ft | 459 kts | 183° |
| 2026-04-27 17:16 | 3.25930 | -79.75149 | 32944 ft | 459 kts | 183° |
| 2026-04-27 17:16 | 3.19585 | -79.75432 | 32942 ft | 459 kts | 183° |
| 2026-04-27 17:17 | 3.13204 | -79.75715 | 32940 ft | 458 kts | 183° |
| 2026-04-27 17:17 | 3.06836 | -79.75999 | 32943 ft | 458 kts | 183° |
| 2026-04-27 17:18 | 2.98347 | -79.76376 | 32936 ft | 458 kts | 183° |
| 2026-04-27 17:18 | 2.91971 | -79.76660 | 32941 ft | 458 kts | 183° |
| 2026-04-27 17:19 | 2.85598 | -79.76943 | 32939 ft | 459 kts | 183° |
| 2026-04-27 17:19 | 2.79209 | -79.77227 | 32941 ft | 459 kts | 183° |
| 2026-04-27 17:20 | 2.72824 | -79.77511 | 32941 ft | 460 kts | 183° |
| 2026-04-27 17:20 | 2.66428 | -79.77795 | 32940 ft | 460 kts | 183° |
| 2026-04-27 17:21 | 2.60065 | -79.78077 | 32935 ft | 460 kts | 183° |
| 2026-04-27 17:21 | 2.53664 | -79.78362 | 32939 ft | 461 kts | 183° |
| 2026-04-27 17:22 | 2.47248 | -79.78647 | 32937 ft | 461 kts | 183° |
| 2026-04-27 17:22 | 2.40833 | -79.78932 | 32937 ft | 461 kts | 183° |
| 2026-04-27 17:23 | 2.34447 | -79.79215 | 32934 ft | 461 kts | 183° |
| 2026-04-27 17:23 | 2.28039 | -79.79500 | 32934 ft | 461 kts | 183° |
| 2026-04-27 17:24 | 2.21614 | -79.79785 | 32933 ft | 461 kts | 183° |
| 2026-04-27 17:24 | 2.15201 | -79.80070 | 32935 ft | 461 kts | 183° |
| 2026-04-27 17:25 | 2.08789 | -79.80355 | 32931 ft | 461 kts | 183° |
| 2026-04-27 17:25 | 2.02379 | -79.80639 | 32932 ft | 461 kts | 183° |
| 2026-04-27 17:26 | 1.95963 | -79.80924 | 32934 ft | 461 kts | 183° |
| 2026-04-27 17:26 | 1.89590 | -79.81207 | 32934 ft | 461 kts | 183° |
| 2026-04-27 17:27 | 1.83184 | -79.81491 | 32929 ft | 461 kts | 183° |
| 2026-04-27 17:27 | 1.76772 | -79.81776 | 32935 ft | 461 kts | 183° |
| 2026-04-27 17:28 | 1.70355 | -79.82060 | 32933 ft | 461 kts | 183° |
| 2026-04-27 17:29 | 1.60737 | -79.82487 | 32933 ft | 461 kts | 183° |
| 2026-04-27 17:29 | 1.54368 | -79.82770 | 32936 ft | 461 kts | 183° |
| 2026-04-27 17:30 | 1.47950 | -79.83055 | 32931 ft | 461 kts | 183° |
| 2026-04-27 17:30 | 1.38319 | -79.83436 | 32928 ft | 462 kts | 181° |
| 2026-04-27 17:31 | 1.31893 | -79.83487 | 32936 ft | 462 kts | 180° |
| 2026-04-27 17:31 | 1.25462 | -79.83508 | 32927 ft | 462 kts | 180° |
| 2026-04-27 17:32 | 1.15812 | -79.83577 | 32928 ft | 462 kts | 181° |
| 2026-04-27 17:33 | 1.09423 | -79.83637 | 32922 ft | 462 kts | 181° |
| 2026-04-27 17:33 | 1.02991 | -79.83699 | 32933 ft | 462 kts | 181° |
| 2026-04-27 17:34 | 0.96542 | -79.83760 | 32932 ft | 463 kts | 181° |
| 2026-04-27 17:34 | 0.90089 | -79.83822 | 32930 ft | 464 kts | 181° |
| 2026-04-27 17:35 | 0.83629 | -79.83883 | 32931 ft | 465 kts | 181° |
| 2026-04-27 17:35 | 0.77163 | -79.83944 | 32926 ft | 465 kts | 181° |
| 2026-04-27 17:36 | 0.70679 | -79.84005 | 32923 ft | 466 kts | 181° |
| 2026-04-27 17:36 | 0.64227 | -79.84066 | 32931 ft | 467 kts | 181° |
| 2026-04-27 17:37 | 0.57721 | -79.84127 | 32925 ft | 468 kts | 181° |
| 2026-04-27 17:37 | 0.51206 | -79.84189 | 32925 ft | 468 kts | 181° |
| 2026-04-27 17:38 | 0.44679 | -79.84251 | 32926 ft | 469 kts | 181° |
| 2026-04-27 17:38 | 0.38155 | -79.84313 | 32926 ft | 469 kts | 181° |
| 2026-04-27 17:39 | 0.31615 | -79.84374 | 32918 ft | 470 kts | 180° |
| 2026-04-27 17:39 | 0.25074 | -79.84436 | 32926 ft | 470 kts | 180° |
| 2026-04-27 17:40 | 0.18555 | -79.84498 | 32927 ft | 471 kts | 180° |
| 2026-04-27 17:40 | 0.11996 | -79.84560 | 32927 ft | 471 kts | 180° |
| 2026-04-27 17:41 | 0.05426 | -79.84622 | 32920 ft | 472 kts | 180° |
| 2026-04-27 17:41 | -0.01152 | -79.84684 | 32921 ft | 472 kts | 180° |
| 2026-04-27 17:42 | -0.07686 | -79.84746 | 32915 ft | 472 kts | 180° |
| 2026-04-27 17:42 | -0.14263 | -79.84808 | 32924 ft | 472 kts | 180° |
| 2026-04-27 17:43 | -0.20849 | -79.84870 | 32918 ft | 473 kts | 180° |
| 2026-04-27 17:43 | -0.27394 | -79.84932 | 32922 ft | 473 kts | 180° |
| 2026-04-27 17:44 | -0.33975 | -79.84994 | 32923 ft | 473 kts | 180° |
| 2026-04-27 17:44 | -0.40602 | -79.85057 | 32927 ft | 473 kts | 180° |
| 2026-04-27 17:45 | -0.47146 | -79.85119 | 32929 ft | 473 kts | 180° |
| 2026-04-27 17:45 | -0.53744 | -79.85181 | 32927 ft | 473 kts | 180° |
| 2026-04-27 17:46 | -0.60331 | -79.85244 | 32923 ft | 473 kts | 180° |
| 2026-04-27 17:46 | -0.66930 | -79.85306 | 32927 ft | 473 kts | 180° |
| 2026-04-27 17:47 | -0.73513 | -79.85368 | 32925 ft | 473 kts | 180° |
| 2026-04-27 17:47 | -0.80070 | -79.85430 | 32927 ft | 473 kts | 181° |
| 2026-04-27 17:48 | -0.86648 | -79.85492 | 32922 ft | 473 kts | 181° |
| 2026-04-27 17:48 | -0.93226 | -79.85555 | 32922 ft | 473 kts | 181° |
| 2026-04-27 17:49 | -0.99804 | -79.85617 | 32917 ft | 473 kts | 181° |
| 2026-04-27 17:49 | -1.06392 | -79.85679 | 32917 ft | 473 kts | 181° |
| 2026-04-27 17:50 | -1.12927 | -79.85741 | 32918 ft | 473 kts | 181° |
| 2026-04-27 17:50 | -1.22806 | -79.85834 | 32911 ft | 473 kts | 181° |
| 2026-04-27 17:51 | -1.29384 | -79.85897 | 32916 ft | 473 kts | 181° |
| 2026-04-27 17:51 | -1.35959 | -79.85959 | 32909 ft | 472 kts | 181° |
| 2026-04-27 17:52 | -1.42538 | -79.86021 | 32910 ft | 473 kts | 181° |
| 2026-04-27 17:52 | -1.48015 | -79.86073 | 32903 ft | 473 kts | 181° |
| 2026-04-27 17:53 | -1.55662 | -79.86145 | 32912 ft | 472 kts | 181° |
| 2026-04-27 17:53 | -1.62226 | -79.86208 | 32905 ft | 472 kts | 181° |
| 2026-04-27 17:54 | -1.68800 | -79.86270 | 32903 ft | 471 kts | 181° |
| 2026-04-27 17:54 | -1.75366 | -79.86333 | 32903 ft | 471 kts | 181° |
| 2026-04-27 17:55 | -1.81910 | -79.86395 | 32901 ft | 470 kts | 181° |
| 2026-04-27 17:55 | -1.88461 | -79.86457 | 32900 ft | 470 kts | 182° |
| 2026-04-27 17:56 | -1.94958 | -79.86519 | 32901 ft | 469 kts | 182° |
| 2026-04-27 17:56 | -2.01491 | -79.86581 | 32897 ft | 468 kts | 182° |
| 2026-04-27 17:57 | -2.08011 | -79.86643 | 32899 ft | 468 kts | 182° |
| 2026-04-27 17:57 | -2.14513 | -79.86587 | 32929 ft | 468 kts | 176° |
| 2026-04-27 17:58 | -2.20981 | -79.85786 | 32931 ft | 469 kts | 173° |
| 2026-04-27 17:58 | -2.27433 | -79.84863 | 32933 ft | 468 kts | 174° |
| 2026-04-27 17:59 | -2.33881 | -79.83993 | 32933 ft | 468 kts | 174° |
| 2026-04-27 17:59 | -2.40345 | -79.83160 | 32926 ft | 468 kts | 175° |
| 2026-04-27 18:00 | -2.46806 | -79.82336 | 32919 ft | 468 kts | 175° |
| 2026-04-27 18:00 | -2.53227 | -79.81515 | 32913 ft | 469 kts | 175° |
| 2026-04-27 18:01 | -2.59707 | -79.80685 | 32924 ft | 469 kts | 174° |
| 2026-04-27 18:01 | -2.66185 | -79.79855 | 32925 ft | 470 kts | 174° |
| 2026-04-27 18:02 | -2.72672 | -79.79023 | 32939 ft | 470 kts | 175° |
| 2026-04-27 18:02 | -2.79165 | -79.78190 | 32938 ft | 470 kts | 175° |
| 2026-04-27 18:03 | -2.85622 | -79.77364 | 32957 ft | 470 kts | 175° |
| 2026-04-27 18:03 | -2.92105 | -79.76535 | 32955 ft | 470 kts | 175° |
| 2026-04-27 18:04 | -2.98604 | -79.75703 | 32957 ft | 470 kts | 175° |
| 2026-04-27 18:04 | -3.05088 | -79.74873 | 32969 ft | 470 kts | 175° |
| 2026-04-27 18:05 | -3.10484 | -79.74183 | 32964 ft | 470 kts | 174° |
| 2026-04-27 18:05 | -3.18026 | -79.73216 | 32976 ft | 469 kts | 175° |
| 2026-04-27 18:06 | -3.23460 | -79.72521 | 32969 ft | 469 kts | 175° |
| 2026-04-27 18:06 | -3.29903 | -79.71696 | 32976 ft | 469 kts | 174° |
| 2026-04-27 18:07 | -3.36383 | -79.70865 | 32969 ft | 469 kts | 175° |
| 2026-04-27 18:07 | -3.42866 | -79.70035 | 32969 ft | 470 kts | 174° |
| 2026-04-27 18:08 | -3.49362 | -79.69203 | 32970 ft | 470 kts | 174° |
| 2026-04-27 18:08 | -3.55844 | -79.68372 | 33013 ft | 470 kts | 174° |
| 2026-04-27 18:09 | -3.62332 | -79.67541 | 32997 ft | 469 kts | 174° |
| 2026-04-27 18:09 | -3.68797 | -79.66711 | 33004 ft | 468 kts | 174° |
| 2026-04-27 18:10 | -3.75216 | -79.65888 | 33011 ft | 468 kts | 174° |
| 2026-04-27 18:10 | -3.81693 | -79.65059 | 33017 ft | 469 kts | 174° |
| 2026-04-27 18:11 | -3.88170 | -79.64228 | 33059 ft | 469 kts | 174° |
| 2026-04-27 18:11 | -3.94660 | -79.63395 | 33072 ft | 470 kts | 174° |
| 2026-04-27 18:12 | -4.01118 | -79.62567 | 33072 ft | 471 kts | 174° |
| 2026-04-27 18:12 | -4.07634 | -79.61731 | 33083 ft | 473 kts | 174° |
| 2026-04-27 18:13 | -4.14204 | -79.60888 | 33252 ft | 478 kts | 174° |
| 2026-04-27 18:13 | -4.17491 | -79.60466 | 33747 ft | 473 kts | 174° |
| 2026-04-27 18:13 | -4.20742 | -79.60048 | 34136 ft | 468 kts | 174° |
| 2026-04-27 18:14 | -4.23959 | -79.59634 | 34421 ft | 465 kts | 174° |
| 2026-04-27 18:14 | -4.27171 | -79.59222 | 34596 ft | 466 kts | 174° |
| 2026-04-27 18:14 | -4.30398 | -79.58808 | 34717 ft | 468 kts | 174° |
| 2026-04-27 18:14 | -4.33598 | -79.58398 | 34870 ft | 468 kts | 174° |
| 2026-04-27 18:15 | -4.36819 | -79.57984 | 35001 ft | 466 kts | 174° |
| 2026-04-27 18:15 | -4.40046 | -79.57570 | 35003 ft | 469 kts | 174° |
| 2026-04-27 18:15 | -4.46574 | -79.56731 | 35051 ft | 475 kts | 174° |
| 2026-04-27 18:16 | -4.53166 | -79.55888 | 35055 ft | 478 kts | 173° |
| 2026-04-27 18:16 | -4.59785 | -79.55061 | 35048 ft | 477 kts | 173° |
| 2026-04-27 18:17 | -4.66276 | -79.54254 | 35053 ft | 469 kts | 174° |
| 2026-04-27 18:17 | -4.72759 | -79.53447 | 35069 ft | 470 kts | 173° |
| 2026-04-27 18:18 | -4.79275 | -79.52635 | 35070 ft | 471 kts | 173° |
| 2026-04-27 18:18 | -4.85790 | -79.51821 | 35081 ft | 472 kts | 174° |
| 2026-04-27 18:19 | -4.92316 | -79.51006 | 35078 ft | 473 kts | 173° |
| 2026-04-27 18:19 | -4.98813 | -79.50194 | 35094 ft | 474 kts | 173° |
| 2026-04-27 18:20 | -5.05371 | -79.49375 | 35089 ft | 475 kts | 173° |
| 2026-04-27 18:20 | -5.11943 | -79.48553 | 35097 ft | 477 kts | 173° |
| 2026-04-27 18:21 | -5.18549 | -79.47728 | 35087 ft | 478 kts | 173° |
| 2026-04-27 18:21 | -5.25154 | -79.46902 | 35084 ft | 478 kts | 172° |
| 2026-04-27 18:22 | -5.31756 | -79.46076 | 35078 ft | 478 kts | 172° |
| 2026-04-27 18:22 | -5.38313 | -79.45256 | 35082 ft | 477 kts | 172° |
| 2026-04-27 18:23 | -5.44900 | -79.44432 | 35074 ft | 477 kts | 172° |
| 2026-04-27 18:23 | -5.51493 | -79.43607 | 35075 ft | 477 kts | 172° |
| 2026-04-27 18:24 | -5.58076 | -79.42783 | 35051 ft | 477 kts | 172° |
| 2026-04-27 18:24 | -5.64663 | -79.41958 | 35067 ft | 476 kts | 172° |
| 2026-04-27 18:25 | -5.71234 | -79.41135 | 35069 ft | 475 kts | 172° |
| 2026-04-27 18:25 | -5.77795 | -79.40314 | 35070 ft | 475 kts | 172° |
| 2026-04-27 18:26 | -5.84367 | -79.39490 | 35063 ft | 475 kts | 172° |
| 2026-04-27 18:26 | -5.90889 | -79.38673 | 35061 ft | 476 kts | 172° |
| 2026-04-27 18:27 | -5.97465 | -79.37849 | 35071 ft | 475 kts | 172° |
| 2026-04-27 18:27 | -6.04034 | -79.37026 | 35060 ft | 475 kts | 172° |
| 2026-04-27 18:28 | -6.10615 | -79.36200 | 35065 ft | 476 kts | 172° |
| 2026-04-27 18:28 | -6.17141 | -79.35382 | 35067 ft | 476 kts | 172° |
| 2026-04-27 18:29 | -6.23714 | -79.34557 | 35061 ft | 476 kts | 172° |
| 2026-04-27 18:29 | -6.30285 | -79.33732 | 35046 ft | 475 kts | 172° |
| 2026-04-27 18:30 | -6.36856 | -79.32907 | 35046 ft | 476 kts | 172° |
| 2026-04-27 18:30 | -6.43434 | -79.32082 | 35040 ft | 476 kts | 172° |
| 2026-04-27 18:31 | -6.49975 | -79.31260 | 35040 ft | 477 kts | 172° |
| 2026-04-27 18:31 | -6.56577 | -79.30431 | 35038 ft | 477 kts | 172° |
| 2026-04-27 18:32 | -6.63171 | -79.29602 | 35014 ft | 477 kts | 172° |
| 2026-04-27 18:32 | -6.69770 | -79.28773 | 35023 ft | 477 kts | 172° |
| 2026-04-27 18:33 | -6.76372 | -79.27943 | 35009 ft | 477 kts | 172° |
| 2026-04-27 18:33 | -6.82926 | -79.27119 | 35042 ft | 477 kts | 172° |
| 2026-04-27 18:34 | -6.89519 | -79.26289 | 35037 ft | 477 kts | 172° |
| 2026-04-27 18:34 | -6.96106 | -79.25461 | 35034 ft | 477 kts | 172° |
| 2026-04-27 18:35 | -7.02694 | -79.24631 | 35024 ft | 476 kts | 172° |
| 2026-04-27 18:35 | -7.09272 | -79.23803 | 35023 ft | 476 kts | 172° |
| 2026-04-27 18:36 | -7.15846 | -79.22975 | 35023 ft | 476 kts | 172° |
| 2026-04-27 18:36 | -7.22378 | -79.22153 | 35006 ft | 476 kts | 172° |
| 2026-04-27 18:37 | -7.28958 | -79.21323 | 35012 ft | 476 kts | 172° |
| 2026-04-27 18:37 | -7.35544 | -79.20493 | 35000 ft | 476 kts | 172° |
| 2026-04-27 18:38 | -7.42131 | -79.19663 | 34986 ft | 477 kts | 172° |
| 2026-04-27 18:38 | -7.48670 | -79.18838 | 34992 ft | 476 kts | 172° |
| 2026-04-27 18:39 | -7.55249 | -79.18008 | 34993 ft | 477 kts | 172° |
| 2026-04-27 18:39 | -7.61844 | -79.17175 | 34988 ft | 478 kts | 172° |
| 2026-04-27 18:40 | -7.68463 | -79.16340 | 34992 ft | 479 kts | 172° |
| 2026-04-27 18:40 | -7.75043 | -79.15509 | 34994 ft | 480 kts | 172° |
| 2026-04-27 18:41 | -7.81678 | -79.14671 | 34984 ft | 481 kts | 172° |
| 2026-04-27 18:41 | -7.88323 | -79.13831 | 34995 ft | 481 kts | 172° |
| 2026-04-27 18:42 | -7.93860 | -79.13131 | 35001 ft | 481 kts | 172° |
| 2026-04-27 18:42 | -8.01629 | -79.12148 | 34992 ft | 481 kts | 172° |
| 2026-04-27 18:43 | -8.08283 | -79.11300 | 34995 ft | 481 kts | 171° |
| 2026-04-27 18:43 | -8.14797 | -79.09815 | 35007 ft | 479 kts | 164° |
| 2026-04-27 18:44 | -8.21220 | -79.07997 | 35002 ft | 479 kts | 163° |
| 2026-04-27 18:44 | -8.27635 | -79.06194 | 34987 ft | 478 kts | 164° |
| 2026-04-27 18:45 | -8.34013 | -79.04456 | 34994 ft | 477 kts | 165° |
| 2026-04-27 18:45 | -8.40419 | -79.02734 | 34972 ft | 475 kts | 165° |
| 2026-04-27 18:46 | -8.46803 | -79.01021 | 34975 ft | 474 kts | 165° |
| 2026-04-27 18:46 | -8.53165 | -78.99311 | 34969 ft | 472 kts | 165° |
| 2026-04-27 18:47 | -8.59512 | -78.97602 | 34987 ft | 472 kts | 165° |
| 2026-04-27 18:47 | -8.65854 | -78.95894 | 34981 ft | 472 kts | 165° |
| 2026-04-27 18:48 | -8.72218 | -78.94180 | 34984 ft | 473 kts | 165° |
| 2026-04-27 18:48 | -8.78588 | -78.92463 | 34975 ft | 475 kts | 165° |
| 2026-04-27 18:49 | -8.84987 | -78.90738 | 34971 ft | 477 kts | 165° |
| 2026-04-27 18:49 | -8.91377 | -78.89015 | 34983 ft | 478 kts | 165° |
| 2026-04-27 18:50 | -8.97827 | -78.87276 | 34960 ft | 480 kts | 165° |
| 2026-04-27 18:50 | -9.04282 | -78.85534 | 34974 ft | 480 kts | 165° |
| 2026-04-27 18:51 | -9.10745 | -78.83789 | 34972 ft | 480 kts | 165° |
| 2026-04-27 18:51 | -9.17177 | -78.82052 | 34973 ft | 481 kts | 165° |
| 2026-04-27 18:52 | -9.23640 | -78.80306 | 34973 ft | 481 kts | 165° |
| 2026-04-27 18:53 | -9.33320 | -78.77689 | 34981 ft | 479 kts | 165° |
| 2026-04-27 18:53 | -9.38673 | -78.76242 | 34979 ft | 479 kts | 165° |
| 2026-04-27 18:54 | -9.46155 | -78.74218 | 34993 ft | 478 kts | 165° |
| 2026-04-27 18:54 | -9.51505 | -78.72770 | 34997 ft | 478 kts | 165° |
| 2026-04-27 18:55 | -9.57936 | -78.71029 | 35004 ft | 478 kts | 165° |
| 2026-04-27 18:55 | -9.64367 | -78.69287 | 34994 ft | 479 kts | 165° |
| 2026-04-27 18:56 | -9.70806 | -78.67542 | 35043 ft | 479 kts | 165° |
| 2026-04-27 18:56 | -9.77251 | -78.65796 | 35048 ft | 478 kts | 165° |
| 2026-04-27 18:57 | -9.83679 | -78.64055 | 35044 ft | 478 kts | 165° |
| 2026-04-27 18:57 | -9.90097 | -78.62315 | 35037 ft | 477 kts | 165° |
| 2026-04-27 18:58 | -9.96470 | -78.60586 | 35023 ft | 477 kts | 165° |
| 2026-04-27 18:58 | -10.02879 | -78.58846 | 35026 ft | 476 kts | 166° |
| 2026-04-27 18:59 | -10.09280 | -78.57109 | 35015 ft | 476 kts | 165° |
| 2026-04-27 18:59 | -10.15675 | -78.55372 | 35003 ft | 475 kts | 165° |
| 2026-04-27 19:00 | -10.22061 | -78.53636 | 34998 ft | 475 kts | 166° |
| 2026-04-27 19:00 | -10.28442 | -78.51902 | 34986 ft | 475 kts | 166° |
| 2026-04-27 19:01 | -10.34779 | -78.50178 | 34998 ft | 475 kts | 165° |
| 2026-04-27 19:01 | -10.41169 | -78.48440 | 34979 ft | 476 kts | 165° |
| 2026-04-27 19:02 | -10.47571 | -78.46698 | 34969 ft | 477 kts | 165° |
| 2026-04-27 19:02 | -10.53987 | -78.44951 | 34981 ft | 478 kts | 165° |
| 2026-04-27 19:03 | -10.60418 | -78.43199 | 34981 ft | 478 kts | 165° |
| 2026-04-27 19:03 | -10.66862 | -78.41443 | 34981 ft | 479 kts | 165° |
| 2026-04-27 19:04 | -10.73308 | -78.39685 | 34979 ft | 480 kts | 166° |
| 2026-04-27 19:04 | -10.79768 | -78.37923 | 34983 ft | 480 kts | 166° |
| 2026-04-27 19:05 | -10.86192 | -78.36170 | 34986 ft | 481 kts | 165° |
| 2026-04-27 19:05 | -10.92670 | -78.34401 | 34977 ft | 481 kts | 166° |
| 2026-04-27 19:06 | -10.99151 | -78.32631 | 34977 ft | 481 kts | 165° |
| 2026-04-27 19:06 | -11.05573 | -78.30876 | 34984 ft | 480 kts | 165° |
| 2026-04-27 19:07 | -11.12025 | -78.29112 | 34979 ft | 480 kts | 166° |
| 2026-04-27 19:07 | -11.18484 | -78.27345 | 34977 ft | 479 kts | 166° |
| 2026-04-27 19:08 | -11.24926 | -78.25582 | 34975 ft | 479 kts | 166° |
| 2026-04-27 19:08 | -11.31367 | -78.23819 | 34992 ft | 479 kts | 166° |
| 2026-04-27 19:09 | -11.37774 | -78.22064 | 34972 ft | 480 kts | 166° |
| 2026-04-27 19:09 | -11.44223 | -78.20297 | 34993 ft | 479 kts | 165° |
| 2026-04-27 19:10 | -11.50669 | -78.18530 | 34981 ft | 479 kts | 166° |
| 2026-04-27 19:10 | -11.57114 | -78.16762 | 34978 ft | 479 kts | 166° |
| 2026-04-27 19:11 | -11.63566 | -78.14991 | 34988 ft | 479 kts | 165° |
| 2026-04-27 19:11 | -11.69971 | -78.13233 | 34984 ft | 479 kts | 166° |
| 2026-04-27 19:12 | -11.76411 | -78.11464 | 34985 ft | 480 kts | 166° |
| 2026-04-27 19:12 | -11.82864 | -78.09691 | 34990 ft | 480 kts | 166° |
| 2026-04-27 19:13 | -11.89332 | -78.07912 | 34984 ft | 480 kts | 166° |
| 2026-04-27 19:13 | -11.95741 | -78.06149 | 34988 ft | 480 kts | 166° |
| 2026-04-27 19:14 | -12.02189 | -78.04375 | 34982 ft | 479 kts | 166° |
| 2026-04-27 19:14 | -12.08618 | -78.02604 | 34980 ft | 478 kts | 166° |
| 2026-04-27 19:15 | -12.15040 | -78.00835 | 34992 ft | 478 kts | 166° |
| 2026-04-27 19:15 | -12.21471 | -77.99062 | 34976 ft | 478 kts | 166° |
| 2026-04-27 19:16 | -12.27855 | -77.97302 | 34994 ft | 478 kts | 166° |
| 2026-04-27 19:16 | -12.34287 | -77.95528 | 34988 ft | 478 kts | 166° |
| 2026-04-27 19:17 | -12.40719 | -77.93752 | 34982 ft | 479 kts | 166° |
| 2026-04-27 19:17 | -12.47147 | -77.91977 | 34992 ft | 479 kts | 166° |
| 2026-04-27 19:18 | -12.53577 | -77.90200 | 34993 ft | 478 kts | 166° |
| 2026-04-27 19:18 | -12.60001 | -77.88424 | 34982 ft | 478 kts | 166° |
| 2026-04-27 19:19 | -12.66434 | -77.86644 | 35001 ft | 478 kts | 166° |
| 2026-04-27 19:19 | -12.72861 | -77.84866 | 34986 ft | 478 kts | 166° |
| 2026-04-27 19:20 | -12.79247 | -77.83097 | 34985 ft | 478 kts | 166° |
| 2026-04-27 19:20 | -12.85689 | -77.81312 | 34996 ft | 479 kts | 166° |
| 2026-04-27 19:21 | -12.92128 | -77.79528 | 34995 ft | 479 kts | 166° |
| 2026-04-27 19:21 | -12.98569 | -77.77741 | 34983 ft | 480 kts | 166° |
| 2026-04-27 19:22 | -13.05015 | -77.75953 | 34999 ft | 479 kts | 166° |
| 2026-04-27 19:22 | -13.11422 | -77.74174 | 34983 ft | 479 kts | 166° |
| 2026-04-27 19:23 | -13.17866 | -77.72383 | 34989 ft | 479 kts | 166° |
| 2026-04-27 19:23 | -13.24297 | -77.70596 | 34993 ft | 479 kts | 166° |
| 2026-04-27 19:24 | -13.30692 | -77.68817 | 34992 ft | 478 kts | 166° |
| 2026-04-27 19:24 | -13.37128 | -77.67026 | 34994 ft | 478 kts | 166° |
| 2026-04-27 19:25 | -13.43561 | -77.65235 | 34990 ft | 478 kts | 166° |
| 2026-04-27 19:25 | -13.49993 | -77.63444 | 34999 ft | 478 kts | 166° |
| 2026-04-27 19:26 | -13.56426 | -77.61651 | 34986 ft | 479 kts | 166° |
| 2026-04-27 19:26 | -13.62853 | -77.59858 | 34994 ft | 478 kts | 166° |
| 2026-04-27 19:27 | -13.69243 | -77.58075 | 34993 ft | 478 kts | 166° |
| 2026-04-27 19:27 | -13.75655 | -77.56285 | 34989 ft | 477 kts | 166° |
| 2026-04-27 19:28 | -13.82053 | -77.54497 | 34982 ft | 476 kts | 166° |
| 2026-04-27 19:28 | -13.88441 | -77.52712 | 34991 ft | 475 kts | 166° |
| 2026-04-27 19:29 | -13.94824 | -77.50927 | 34994 ft | 475 kts | 166° |
| 2026-04-27 19:29 | -14.01202 | -77.49142 | 34984 ft | 475 kts | 166° |
| 2026-04-27 19:30 | -14.07574 | -77.47358 | 34995 ft | 474 kts | 166° |
| 2026-04-27 19:30 | -14.13908 | -77.45583 | 34995 ft | 474 kts | 166° |
| 2026-04-27 19:31 | -14.20280 | -77.43796 | 34996 ft | 474 kts | 166° |
| 2026-04-27 19:31 | -14.26651 | -77.42009 | 34995 ft | 474 kts | 166° |
| 2026-04-27 19:32 | -14.33029 | -77.40263 | 34995 ft | 474 kts | 167° |
| 2026-04-27 19:32 | -14.39421 | -77.38562 | 34992 ft | 474 kts | 167° |
| 2026-04-27 19:33 | -14.45822 | -77.36857 | 34991 ft | 474 kts | 167° |
| 2026-04-27 19:33 | -14.52172 | -77.35157 | 34993 ft | 474 kts | 167° |
| 2026-04-27 19:34 | -14.58559 | -77.33443 | 34998 ft | 474 kts | 167° |
| 2026-04-27 19:34 | -14.64953 | -77.31723 | 34992 ft | 474 kts | 167° |
| 2026-04-27 19:35 | -14.71349 | -77.30003 | 34992 ft | 475 kts | 167° |
| 2026-04-27 19:35 | -14.77745 | -77.28282 | 34996 ft | 475 kts | 167° |
| 2026-04-27 19:36 | -14.84152 | -77.26558 | 35000 ft | 476 kts | 167° |
| 2026-04-27 19:36 | -14.90576 | -77.24828 | 35001 ft | 477 kts | 167° |
| 2026-04-27 19:37 | -14.96997 | -77.23097 | 34993 ft | 477 kts | 167° |
| 2026-04-27 19:37 | -15.03384 | -77.21374 | 35001 ft | 477 kts | 167° |
| 2026-04-27 19:38 | -15.09811 | -77.19640 | 35001 ft | 477 kts | 167° |
| 2026-04-27 19:38 | -15.16241 | -77.17903 | 34999 ft | 477 kts | 167° |
| 2026-04-27 19:39 | -15.22661 | -77.16168 | 34997 ft | 476 kts | 167° |
| 2026-04-27 19:39 | -15.29069 | -77.14435 | 35006 ft | 476 kts | 167° |
| 2026-04-27 19:40 | -15.35483 | -77.12700 | 35000 ft | 476 kts | 167° |
| 2026-04-27 19:40 | -15.41888 | -77.10966 | 35005 ft | 476 kts | 167° |
| 2026-04-27 19:41 | -15.48296 | -77.09230 | 35014 ft | 476 kts | 167° |
| 2026-04-27 19:41 | -15.54705 | -77.07493 | 35004 ft | 476 kts | 167° |
| 2026-04-27 19:42 | -15.60038 | -77.06046 | 35006 ft | 476 kts | 167° |
| 2026-04-27 19:42 | -15.66452 | -77.04305 | 35010 ft | 477 kts | 167° |
| 2026-04-27 19:43 | -15.72878 | -77.02560 | 35002 ft | 477 kts | 167° |
| 2026-04-27 19:43 | -15.79313 | -77.00812 | 35012 ft | 477 kts | 167° |
| 2026-04-27 19:44 | -15.85709 | -76.99072 | 35011 ft | 478 kts | 167° |
| 2026-04-27 19:44 | -15.92153 | -76.97319 | 35008 ft | 478 kts | 167° |
| 2026-04-27 19:45 | -15.98598 | -76.95564 | 35021 ft | 478 kts | 167° |
| 2026-04-27 19:45 | -16.05039 | -76.93809 | 35015 ft | 478 kts | 167° |
| 2026-04-27 19:46 | -16.11436 | -76.92065 | 35018 ft | 478 kts | 167° |
| 2026-04-27 19:46 | -16.17874 | -76.90308 | 35015 ft | 478 kts | 167° |
| 2026-04-27 19:47 | -16.24315 | -76.88550 | 35021 ft | 478 kts | 167° |
| 2026-04-27 19:47 | -16.30754 | -76.86790 | 35026 ft | 478 kts | 167° |
| 2026-04-27 19:48 | -16.37183 | -76.85033 | 35016 ft | 478 kts | 167° |
| 2026-04-27 19:48 | -16.43619 | -76.83272 | 35019 ft | 478 kts | 167° |
| 2026-04-27 19:49 | -16.50046 | -76.81513 | 35022 ft | 478 kts | 167° |
| 2026-04-27 19:49 | -16.56434 | -76.79763 | 35021 ft | 477 kts | 167° |
| 2026-04-27 19:50 | -16.62868 | -76.77999 | 35030 ft | 478 kts | 167° |
| 2026-04-27 19:50 | -16.69300 | -76.76234 | 35025 ft | 478 kts | 167° |
| 2026-04-27 19:51 | -16.75741 | -76.74466 | 35018 ft | 478 kts | 167° |
| 2026-04-27 19:51 | -16.82172 | -76.72699 | 35023 ft | 478 kts | 167° |
| 2026-04-27 19:52 | -16.88566 | -76.70942 | 35026 ft | 478 kts | 167° |
| 2026-04-27 19:52 | -16.94993 | -76.69173 | 35023 ft | 478 kts | 167° |
| 2026-04-27 19:53 | -17.04659 | -76.66512 | 35026 ft | 478 kts | 167° |
| 2026-04-27 19:53 | -17.11098 | -76.64737 | 35027 ft | 478 kts | 167° |
| 2026-04-27 19:54 | -17.17502 | -76.62971 | 35029 ft | 478 kts | 167° |
| 2026-04-27 19:54 | -17.23942 | -76.61194 | 35030 ft | 478 kts | 167° |
| 2026-04-27 19:55 | -17.30382 | -76.59415 | 35036 ft | 478 kts | 168° |
| 2026-04-27 19:55 | -17.36829 | -76.57633 | 35032 ft | 478 kts | 168° |
| 2026-04-27 19:56 | -17.43272 | -76.55851 | 35033 ft | 478 kts | 168° |
| 2026-04-27 19:56 | -17.49670 | -76.54080 | 35033 ft | 478 kts | 168° |
| 2026-04-27 19:57 | -17.56113 | -76.52296 | 35036 ft | 478 kts | 168° |
| 2026-04-27 19:57 | -17.62549 | -76.50512 | 35045 ft | 478 kts | 168° |
| 2026-04-27 19:58 | -17.69002 | -76.48722 | 35037 ft | 479 kts | 168° |
| 2026-04-27 19:58 | -17.75415 | -76.46941 | 35035 ft | 479 kts | 168° |
| 2026-04-27 19:59 | -17.81862 | -76.45150 | 35036 ft | 479 kts | 168° |
| 2026-04-27 19:59 | -17.88318 | -76.43355 | 35038 ft | 479 kts | 168° |
| 2026-04-27 20:00 | -17.94770 | -76.41560 | 35040 ft | 479 kts | 168° |
| 2026-04-27 20:00 | -18.01228 | -76.39762 | 35045 ft | 480 kts | 168° |
| 2026-04-27 20:01 | -18.07647 | -76.37973 | 35043 ft | 480 kts | 168° |
| 2026-04-27 20:01 | -18.14104 | -76.36172 | 35041 ft | 480 kts | 168° |
| 2026-04-27 20:02 | -18.20571 | -76.34367 | 35041 ft | 480 kts | 168° |
| 2026-04-27 20:02 | -18.27038 | -76.32560 | 35041 ft | 480 kts | 168° |
| 2026-04-27 20:03 | -18.33508 | -76.30752 | 35039 ft | 480 kts | 168° |
| 2026-04-27 20:03 | -18.39961 | -76.28905 | 35044 ft | 481 kts | 167° |
| 2026-04-27 20:04 | -18.46400 | -76.26993 | 35042 ft | 481 kts | 167° |
| 2026-04-27 20:04 | -18.52800 | -76.25087 | 35047 ft | 481 kts | 167° |
| 2026-04-27 20:05 | -18.59254 | -76.23173 | 35048 ft | 481 kts | 167° |
| 2026-04-27 20:05 | -18.65700 | -76.21265 | 35051 ft | 481 kts | 167° |
| 2026-04-27 20:06 | -18.72106 | -76.19369 | 35048 ft | 481 kts | 167° |
| 2026-04-27 20:06 | -18.78555 | -76.17459 | 35049 ft | 481 kts | 167° |
| 2026-04-27 20:07 | -18.84995 | -76.15549 | 35047 ft | 481 kts | 167° |
| 2026-04-27 20:07 | -18.91443 | -76.13635 | 35048 ft | 481 kts | 167° |
| 2026-04-27 20:08 | -18.97893 | -76.11719 | 35054 ft | 481 kts | 167° |
| 2026-04-27 20:08 | -19.04339 | -76.09802 | 35055 ft | 481 kts | 167° |
| 2026-04-27 20:09 | -19.10751 | -76.07895 | 35057 ft | 481 kts | 167° |
| 2026-04-27 20:09 | -19.17197 | -76.05975 | 35055 ft | 481 kts | 167° |
| 2026-04-27 20:10 | -19.23663 | -76.04048 | 35052 ft | 481 kts | 167° |
| 2026-04-27 20:10 | -19.30109 | -76.02125 | 35062 ft | 482 kts | 168° |
| 2026-04-27 20:11 | -19.36566 | -76.00198 | 35060 ft | 482 kts | 168° |
| 2026-04-27 20:11 | -19.42983 | -75.98281 | 35058 ft | 482 kts | 168° |
| 2026-04-27 20:12 | -19.48387 | -75.96665 | 35059 ft | 482 kts | 168° |
| 2026-04-27 20:12 | -19.55889 | -75.94421 | 35059 ft | 482 kts | 168° |
| 2026-04-27 20:13 | -19.62343 | -75.92488 | 35062 ft | 482 kts | 168° |
| 2026-04-27 20:13 | -19.68808 | -75.90550 | 35069 ft | 482 kts | 168° |
| 2026-04-27 20:14 | -19.75264 | -75.88613 | 35062 ft | 482 kts | 168° |
| 2026-04-27 20:14 | -19.81720 | -75.86675 | 35063 ft | 482 kts | 168° |
| 2026-04-27 20:15 | -19.88180 | -75.84734 | 35067 ft | 482 kts | 168° |
| 2026-04-27 20:15 | -19.94638 | -75.82791 | 35063 ft | 482 kts | 168° |
| 2026-04-27 20:16 | -20.01056 | -75.80859 | 35071 ft | 482 kts | 168° |
| 2026-04-27 20:16 | -20.07517 | -75.78913 | 35063 ft | 482 kts | 168° |
| 2026-04-27 20:17 | -20.13986 | -75.76962 | 35065 ft | 482 kts | 168° |
| 2026-04-27 20:17 | -20.19349 | -75.75344 | 35067 ft | 482 kts | 168° |
| 2026-04-27 20:18 | -20.26912 | -75.73060 | 35073 ft | 482 kts | 168° |
| 2026-04-27 20:18 | -20.33328 | -75.71120 | 35068 ft | 482 kts | 168° |
| 2026-04-27 20:19 | -20.39785 | -75.69166 | 35068 ft | 482 kts | 168° |
| 2026-04-27 20:19 | -20.46229 | -75.67215 | 35073 ft | 481 kts | 168° |
| 2026-04-27 20:20 | -20.52679 | -75.65260 | 35073 ft | 481 kts | 168° |
| 2026-04-27 20:20 | -20.59120 | -75.63305 | 35078 ft | 481 kts | 168° |
| 2026-04-27 20:21 | -20.65553 | -75.61352 | 35071 ft | 480 kts | 168° |
| 2026-04-27 20:21 | -20.71976 | -75.59400 | 35075 ft | 479 kts | 168° |
| 2026-04-27 20:22 | -20.78386 | -75.57450 | 35076 ft | 478 kts | 168° |
| 2026-04-27 20:22 | -20.84788 | -75.55501 | 35075 ft | 478 kts | 168° |
| 2026-04-27 20:23 | -20.91155 | -75.53561 | 35078 ft | 478 kts | 169° |
| 2026-04-27 20:23 | -20.97545 | -75.51613 | 35075 ft | 477 kts | 169° |
| 2026-04-27 20:24 | -21.03924 | -75.49665 | 35076 ft | 477 kts | 169° |
| 2026-04-27 20:24 | -21.10316 | -75.47712 | 35076 ft | 477 kts | 169° |
| 2026-04-27 20:25 | -21.16702 | -75.45760 | 35082 ft | 477 kts | 169° |
| 2026-04-27 20:25 | -21.23042 | -75.43819 | 35080 ft | 477 kts | 169° |
| 2026-04-27 20:26 | -21.29442 | -75.41859 | 35083 ft | 478 kts | 169° |
| 2026-04-27 20:26 | -21.35841 | -75.39896 | 35082 ft | 478 kts | 169° |
| 2026-04-27 20:27 | -21.42245 | -75.37930 | 35080 ft | 479 kts | 169° |
| 2026-04-27 20:27 | -21.48658 | -75.35961 | 35079 ft | 479 kts | 169° |
| 2026-04-27 20:28 | -21.55082 | -75.33986 | 35081 ft | 480 kts | 169° |
| 2026-04-27 20:28 | -21.60429 | -75.32340 | 35079 ft | 480 kts | 169° |
| 2026-04-27 20:29 | -21.67900 | -75.30037 | 35082 ft | 481 kts | 169° |
| 2026-04-27 20:29 | -21.74356 | -75.28045 | 35081 ft | 481 kts | 169° |
| 2026-04-27 20:30 | -21.80746 | -75.26072 | 35096 ft | 481 kts | 169° |
| 2026-04-27 20:30 | -21.87176 | -75.24085 | 35085 ft | 481 kts | 169° |
| 2026-04-27 20:31 | -21.92567 | -75.22417 | 35087 ft | 480 kts | 169° |
| 2026-04-27 20:31 | -21.98987 | -75.20430 | 35084 ft | 480 kts | 169° |
| 2026-04-27 20:32 | -22.05358 | -75.18455 | 35084 ft | 479 kts | 169° |
| 2026-04-27 20:32 | -22.11769 | -75.16467 | 35102 ft | 479 kts | 170° |
| 2026-04-27 20:33 | -22.18176 | -75.14478 | 35090 ft | 479 kts | 170° |
| 2026-04-27 20:33 | -22.24582 | -75.12487 | 35086 ft | 478 kts | 170° |
| 2026-04-27 20:34 | -22.30983 | -75.10496 | 35089 ft | 478 kts | 170° |
| 2026-04-27 20:34 | -22.37375 | -75.08506 | 35090 ft | 477 kts | 170° |
| 2026-04-27 20:35 | -22.43720 | -75.06529 | 35106 ft | 477 kts | 170° |
| 2026-04-27 20:35 | -22.50102 | -75.04538 | 35088 ft | 477 kts | 170° |
| 2026-04-27 20:36 | -22.56485 | -75.02545 | 35088 ft | 477 kts | 170° |
| 2026-04-27 20:36 | -22.62852 | -75.00555 | 35092 ft | 477 kts | 170° |
| 2026-04-27 20:37 | -22.69228 | -74.98560 | 35095 ft | 476 kts | 170° |
| 2026-04-27 20:37 | -22.75604 | -74.96564 | 35102 ft | 476 kts | 171° |
| 2026-04-27 20:38 | -22.81942 | -74.94577 | 35097 ft | 476 kts | 171° |
| 2026-04-27 20:38 | -22.88309 | -74.92580 | 35094 ft | 476 kts | 171° |
| 2026-04-27 20:39 | -22.94677 | -74.90579 | 35098 ft | 476 kts | 171° |
| 2026-04-27 20:39 | -23.01035 | -74.88581 | 35098 ft | 475 kts | 171° |
| 2026-04-27 20:40 | -23.07396 | -74.86579 | 35105 ft | 475 kts | 171° |
| 2026-04-27 20:40 | -23.13745 | -74.84579 | 35101 ft | 475 kts | 171° |
| 2026-04-27 20:41 | -23.20044 | -74.82593 | 35098 ft | 474 kts | 171° |
| 2026-04-27 20:41 | -23.26423 | -74.80579 | 35100 ft | 474 kts | 171° |
| 2026-04-27 20:42 | -23.32750 | -74.78581 | 35128 ft | 474 kts | 171° |
| 2026-04-27 20:42 | -23.39049 | -74.76589 | 35108 ft | 474 kts | 171° |
| 2026-04-27 20:43 | -23.45382 | -74.74584 | 35099 ft | 473 kts | 171° |
| 2026-04-27 20:43 | -23.51709 | -74.72579 | 35102 ft | 473 kts | 171° |
| 2026-04-27 20:44 | -23.58030 | -74.70574 | 35099 ft | 473 kts | 171° |
| 2026-04-27 20:44 | -23.64347 | -74.68568 | 35120 ft | 473 kts | 172° |
| 2026-04-27 20:45 | -23.70665 | -74.66561 | 35112 ft | 473 kts | 172° |
| 2026-04-27 20:45 | -23.76981 | -74.64551 | 35108 ft | 473 kts | 172° |
| 2026-04-27 20:46 | -23.83248 | -74.62555 | 35103 ft | 472 kts | 172° |
| 2026-04-27 20:46 | -23.89565 | -74.60541 | 35106 ft | 472 kts | 172° |
| 2026-04-27 20:47 | -23.95878 | -74.58527 | 35114 ft | 473 kts | 172° |
| 2026-04-27 20:47 | -24.02193 | -74.56509 | 35111 ft | 473 kts | 172° |
| 2026-04-27 20:48 | -24.08510 | -74.54489 | 35106 ft | 473 kts | 172° |
| 2026-04-27 20:48 | -24.14821 | -74.52469 | 35107 ft | 472 kts | 172° |
| 2026-04-27 20:49 | -24.21097 | -74.50457 | 35112 ft | 472 kts | 172° |
| 2026-04-27 20:49 | -24.27454 | -74.48420 | 35119 ft | 473 kts | 172° |
| 2026-04-27 20:50 | -24.33735 | -74.46424 | 35106 ft | 473 kts | 173° |
| 2026-04-27 20:50 | -24.40058 | -74.44422 | 35112 ft | 473 kts | 173° |
| 2026-04-27 20:51 | -24.46386 | -74.42414 | 35113 ft | 473 kts | 172° |
| 2026-04-27 20:51 | -24.52711 | -74.40403 | 35108 ft | 473 kts | 172° |
| 2026-04-27 20:52 | -24.59027 | -74.38391 | 35111 ft | 473 kts | 172° |
| 2026-04-27 20:52 | -24.65316 | -74.36386 | 35119 ft | 473 kts | 172° |
| 2026-04-27 20:53 | -24.71635 | -74.34370 | 35111 ft | 473 kts | 172° |
| 2026-04-27 20:53 | -24.77995 | -74.32338 | 35110 ft | 473 kts | 172° |
| 2026-04-27 20:54 | -24.87447 | -74.29315 | 35122 ft | 474 kts | 173° |
| 2026-04-27 20:55 | -24.93782 | -74.27286 | 35117 ft | 474 kts | 173° |
| 2026-04-27 20:55 | -25.00113 | -74.25256 | 35117 ft | 474 kts | 173° |
| 2026-04-27 20:56 | -25.06462 | -74.23217 | 35117 ft | 474 kts | 173° |
| 2026-04-27 20:56 | -25.12800 | -74.21181 | 35127 ft | 475 kts | 173° |
| 2026-04-27 20:57 | -25.19147 | -74.19139 | 35124 ft | 475 kts | 173° |
| 2026-04-27 20:57 | -25.25454 | -74.17108 | 35116 ft | 475 kts | 173° |
| 2026-04-27 20:58 | -25.31797 | -74.15063 | 35120 ft | 475 kts | 173° |
| 2026-04-27 20:58 | -25.38142 | -74.13015 | 35119 ft | 475 kts | 173° |
| 2026-04-27 20:59 | -25.44487 | -74.10965 | 35129 ft | 475 kts | 173° |
| 2026-04-27 20:59 | -25.50851 | -74.08907 | 35123 ft | 475 kts | 173° |
| 2026-04-27 21:00 | -25.57204 | -74.06850 | 35119 ft | 475 kts | 173° |
| 2026-04-27 21:00 | -25.63509 | -74.04805 | 35126 ft | 475 kts | 173° |
| 2026-04-27 21:01 | -25.69853 | -74.02747 | 35146 ft | 475 kts | 173° |
| 2026-04-27 21:01 | -25.76208 | -74.00682 | 35134 ft | 475 kts | 173° |
| 2026-04-27 21:02 | -25.82561 | -73.98616 | 35124 ft | 475 kts | 173° |
| 2026-04-27 21:02 | -25.88880 | -73.96558 | 35126 ft | 475 kts | 173° |
| 2026-04-27 21:03 | -25.95228 | -73.94489 | 35125 ft | 475 kts | 173° |
| 2026-04-27 21:03 | -26.01577 | -73.92417 | 35130 ft | 476 kts | 173° |
| 2026-04-27 21:04 | -26.07935 | -73.90340 | 35119 ft | 476 kts | 173° |
| 2026-04-27 21:04 | -26.14265 | -73.88269 | 35130 ft | 475 kts | 173° |
| 2026-04-27 21:05 | -26.20608 | -73.86192 | 35132 ft | 475 kts | 173° |
| 2026-04-27 21:05 | -26.21682 | -73.85840 | 35133 ft | 475 kts | 173° |